sensor_id;sensor_type;location;lat;lon;timestamp;P1;durP1;ratioP1;P2;durP2;ratioP2
60336;SDS011;46978;50.288;28.624;2023-05-10T00:00:41;22.09;;;10.89;;
60336;SDS011;46978;50.288;28.624;2023-05-10T00:01:43;21.58;;;11.71;;
60336;SDS011;46978;50.288;28.624;2023-05-10T00:02:44;24.08;;;11.83;;
60336;SDS011;46978;50.288;28.624;2023-05-10T00:03:46;24.71;;;12.26;;
60336;SDS011;46978;50.288;28.624;2023-05-10T00:04:47;19.62;;;11.63;;
60336;SDS011;46978;50.288;28.624;2023-05-10T00:05:49;26.96;;;12.71;;
60336;SDS011;46978;50.288;28.624;2023-05-10T00:06:51;23.79;;;12.59;;
60336;SDS011;46978;50.288;28.624;2023-05-10T00:07:52;29.19;;;13.74;;
60336;SDS011;46978;50.288;28.624;2023-05-10T00:08:54;32.33;;;15.77;;
60336;SDS011;46978;50.288;28.624;2023-05-10T00:09:55;30.34;;;14.13;;
60336;SDS011;46978;50.288;28.624;2023-05-10T00:10:57;29.99;;;14.83;;
60336;SDS011;46978;50.288;28.624;2023-05-10T00:11:59;34.82;;;14.74;;
60336;SDS011;46978;50.288;28.624;2023-05-10T00:13:00;29.57;;;15.48;;
60336;SDS011;46978;50.288;28.624;2023-05-10T00:14:02;24.54;;;13.33;;
60336;SDS011;46978;50.288;28.624;2023-05-10T00:15:04;23.40;;;12.41;;
60336;SDS011;46978;50.288;28.624;2023-05-10T00:16:06;25.23;;;13.26;;
60336;SDS011;46978;50.288;28.624;2023-05-10T00:17:08;28.13;;;13.31;;
60336;SDS011;46978;50.288;28.624;2023-05-10T00:18:09;27.76;;;14.08;;
60336;SDS011;46978;50.288;28.624;2023-05-10T00:19:11;34.20;;;15.16;;
60336;SDS011;46978;50.288;28.624;2023-05-10T00:20:13;37.16;;;15.39;;
60336;SDS011;46978;50.288;28.624;2023-05-10T00:21:14;31.55;;;15.91;;
60336;SDS011;46978;50.288;28.624;2023-05-10T00:22:16;28.66;;;14.94;;
60336;SDS011;46978;50.288;28.624;2023-05-10T00:23:17;28.09;;;13.79;;
60336;SDS011;46978;50.288;28.624;2023-05-10T00:24:19;29.27;;;14.40;;
60336;SDS011;46978;50.288;28.624;2023-05-10T00:25:20;25.57;;;14.01;;
60336;SDS011;46978;50.288;28.624;2023-05-10T00:26:22;28.60;;;13.25;;
60336;SDS011;46978;50.288;28.624;2023-05-10T00:27:24;28.24;;;13.94;;
60336;SDS011;46978;50.288;28.624;2023-05-10T00:28:26;25.71;;;13.98;;
60336;SDS011;46978;50.288;28.624;2023-05-10T00:29:29;27.90;;;14.79;;
60336;SDS011;46978;50.288;28.624;2023-05-10T00:30:30;26.29;;;14.00;;
60336;SDS011;46978;50.288;28.624;2023-05-10T00:31:32;27.13;;;13.88;;
60336;SDS011;46978;50.288;28.624;2023-05-10T00:32:33;27.52;;;14.47;;
60336;SDS011;46978;50.288;28.624;2023-05-10T00:33:35;34.10;;;15.51;;
60336;SDS011;46978;50.288;28.624;2023-05-10T00:34:37;30.30;;;14.64;;
60336;SDS011;46978;50.288;28.624;2023-05-10T00:35:38;26.21;;;13.79;;
60336;SDS011;46978;50.288;28.624;2023-05-10T00:36:40;27.03;;;13.71;;
60336;SDS011;46978;50.288;28.624;2023-05-10T00:37:41;28.38;;;13.56;;
60336;SDS011;46978;50.288;28.624;2023-05-10T00:38:43;23.97;;;13.49;;
60336;SDS011;46978;50.288;28.624;2023-05-10T00:39:45;27.04;;;13.00;;
60336;SDS011;46978;50.288;28.624;2023-05-10T00:40:46;25.89;;;13.78;;
60336;SDS011;46978;50.288;28.624;2023-05-10T00:41:48;27.79;;;13.39;;
60336;SDS011;46978;50.288;28.624;2023-05-10T00:42:50;25.60;;;13.41;;
60336;SDS011;46978;50.288;28.624;2023-05-10T00:43:51;26.18;;;12.66;;
60336;SDS011;46978;50.288;28.624;2023-05-10T00:44:53;25.56;;;12.44;;
60336;SDS011;46978;50.288;28.624;2023-05-10T00:45:54;22.78;;;12.64;;
60336;SDS011;46978;50.288;28.624;2023-05-10T00:46:57;24.79;;;12.69;;
60336;SDS011;46978;50.288;28.624;2023-05-10T00:48:01;22.01;;;11.48;;
60336;SDS011;46978;50.288;28.624;2023-05-10T00:49:04;21.24;;;11.95;;
60336;SDS011;46978;50.288;28.624;2023-05-10T00:50:06;23.09;;;11.28;;
60336;SDS011;46978;50.288;28.624;2023-05-10T00:51:09;21.22;;;10.62;;
60336;SDS011;46978;50.288;28.624;2023-05-10T00:52:11;18.35;;;8.55;;
60336;SDS011;46978;50.288;28.624;2023-05-10T00:53:12;13.94;;;7.79;;
60336;SDS011;46978;50.288;28.624;2023-05-10T00:54:15;15.77;;;8.13;;
60336;SDS011;46978;50.288;28.624;2023-05-10T00:55:17;13.68;;;7.79;;
60336;SDS011;46978;50.288;28.624;2023-05-10T00:56:19;18.41;;;8.97;;
60336;SDS011;46978;50.288;28.624;2023-05-10T00:57:21;15.41;;;8.66;;
60336;SDS011;46978;50.288;28.624;2023-05-10T00:58:23;18.51;;;9.75;;
60336;SDS011;46978;50.288;28.624;2023-05-10T00:59:25;19.29;;;9.92;;
60336;SDS011;46978;50.288;28.624;2023-05-10T01:00:27;17.83;;;9.73;;
60336;SDS011;46978;50.288;28.624;2023-05-10T01:01:30;18.69;;;9.07;;
60336;SDS011;46978;50.288;28.624;2023-05-10T01:02:33;13.30;;;8.07;;
60336;SDS011;46978;50.288;28.624;2023-05-10T01:03:37;11.29;;;7.07;;
60336;SDS011;46978;50.288;28.624;2023-05-10T01:04:41;11.35;;;6.40;;
60336;SDS011;46978;50.288;28.624;2023-05-10T01:05:44;11.94;;;6.94;;
60336;SDS011;46978;50.288;28.624;2023-05-10T01:06:45;12.26;;;7.13;;
60336;SDS011;46978;50.288;28.624;2023-05-10T01:07:47;13.14;;;7.03;;
60336;SDS011;46978;50.288;28.624;2023-05-10T01:08:49;16.04;;;7.89;;
60336;SDS011;46978;50.288;28.624;2023-05-10T01:09:51;11.17;;;7.13;;
60336;SDS011;46978;50.288;28.624;2023-05-10T01:10:53;13.60;;;7.15;;
60336;SDS011;46978;50.288;28.624;2023-05-10T01:11:55;15.34;;;7.26;;
60336;SDS011;46978;50.288;28.624;2023-05-10T01:12:57;12.14;;;7.30;;
60336;SDS011;46978;50.288;28.624;2023-05-10T01:14:00;15.11;;;7.48;;
60336;SDS011;46978;50.288;28.624;2023-05-10T01:15:03;12.94;;;6.69;;
60336;SDS011;46978;50.288;28.624;2023-05-10T01:16:08;14.21;;;7.48;;
60336;SDS011;46978;50.288;28.624;2023-05-10T01:17:10;11.55;;;6.52;;
60336;SDS011;46978;50.288;28.624;2023-05-10T01:18:13;11.87;;;6.44;;
60336;SDS011;46978;50.288;28.624;2023-05-10T01:19:20;12.73;;;7.32;;
60336;SDS011;46978;50.288;28.624;2023-05-10T01:20:24;15.48;;;6.71;;
60336;SDS011;46978;50.288;28.624;2023-05-10T01:21:33;15.17;;;7.62;;
60336;SDS011;46978;50.288;28.624;2023-05-10T01:22:44;15.56;;;7.61;;
60336;SDS011;46978;50.288;28.624;2023-05-10T01:26:55;13.87;;;7.95;;
60336;SDS011;46978;50.288;28.624;2023-05-10T01:31:31;12.01;;;7.11;;
60336;SDS011;46978;50.288;28.624;2023-05-10T01:32:43;14.81;;;7.08;;
60336;SDS011;46978;50.288;28.624;2023-05-10T01:33:59;20.78;;;7.63;;
60336;SDS011;46978;50.288;28.624;2023-05-10T01:35:06;16.88;;;7.23;;
60336;SDS011;46978;50.288;28.624;2023-05-10T01:41:40;16.05;;;6.88;;
60336;SDS011;46978;50.288;28.624;2023-05-10T01:42:53;15.83;;;6.79;;
60336;SDS011;46978;50.288;28.624;2023-05-10T01:44:01;13.08;;;6.35;;
60336;SDS011;46978;50.288;28.624;2023-05-10T01:45:24;11.78;;;6.69;;
60336;SDS011;46978;50.288;28.624;2023-05-10T01:46:27;14.11;;;6.63;;
60336;SDS011;46978;50.288;28.624;2023-05-10T01:47:43;12.13;;;6.91;;
60336;SDS011;46978;50.288;28.624;2023-05-10T01:48:47;12.43;;;6.69;;
60336;SDS011;46978;50.288;28.624;2023-05-10T01:49:52;11.74;;;6.85;;
60336;SDS011;46978;50.288;28.624;2023-05-10T01:50:56;12.95;;;7.18;;
60336;SDS011;46978;50.288;28.624;2023-05-10T01:52:00;11.31;;;6.98;;
60336;SDS011;46978;50.288;28.624;2023-05-10T01:53:08;15.17;;;7.89;;
60336;SDS011;46978;50.288;28.624;2023-05-10T01:54:11;14.40;;;7.18;;
60336;SDS011;46978;50.288;28.624;2023-05-10T01:55:15;13.64;;;7.37;;
60336;SDS011;46978;50.288;28.624;2023-05-10T01:56:19;15.07;;;7.07;;
60336;SDS011;46978;50.288;28.624;2023-05-10T01:57:25;13.13;;;6.86;;
60336;SDS011;46978;50.288;28.624;2023-05-10T01:58:30;12.73;;;7.55;;
60336;SDS011;46978;50.288;28.624;2023-05-10T01:59:34;14.53;;;7.78;;
60336;SDS011;46978;50.288;28.624;2023-05-10T02:00:39;14.31;;;7.61;;
60336;SDS011;46978;50.288;28.624;2023-05-10T02:01:43;15.93;;;7.84;;
60336;SDS011;46978;50.288;28.624;2023-05-10T02:02:47;15.22;;;7.55;;
60336;SDS011;46978;50.288;28.624;2023-05-10T02:03:50;13.11;;;7.39;;
60336;SDS011;46978;50.288;28.624;2023-05-10T02:04:53;14.71;;;7.88;;
60336;SDS011;46978;50.288;28.624;2023-05-10T02:05:56;13.48;;;7.47;;
60336;SDS011;46978;50.288;28.624;2023-05-10T02:07:00;14.52;;;7.55;;
60336;SDS011;46978;50.288;28.624;2023-05-10T02:08:02;12.59;;;7.29;;
60336;SDS011;46978;50.288;28.624;2023-05-10T02:09:06;11.59;;;7.11;;
60336;SDS011;46978;50.288;28.624;2023-05-10T02:10:10;11.90;;;6.59;;
60336;SDS011;46978;50.288;28.624;2023-05-10T02:11:13;11.64;;;7.14;;
60336;SDS011;46978;50.288;28.624;2023-05-10T02:12:15;8.19;;;5.66;;
60336;SDS011;46978;50.288;28.624;2023-05-10T02:13:18;9.06;;;5.57;;
60336;SDS011;46978;50.288;28.624;2023-05-10T02:14:22;9.90;;;5.93;;
60336;SDS011;46978;50.288;28.624;2023-05-10T02:15:25;9.96;;;5.93;;
60336;SDS011;46978;50.288;28.624;2023-05-10T02:16:28;8.52;;;5.97;;
60336;SDS011;46978;50.288;28.624;2023-05-10T02:17:32;13.63;;;5.83;;
60336;SDS011;46978;50.288;28.624;2023-05-10T02:18:35;8.61;;;5.56;;
60336;SDS011;46978;50.288;28.624;2023-05-10T02:19:38;8.85;;;5.91;;
60336;SDS011;46978;50.288;28.624;2023-05-10T02:20:42;8.75;;;5.62;;
60336;SDS011;46978;50.288;28.624;2023-05-10T02:21:46;11.63;;;5.58;;
60336;SDS011;46978;50.288;28.624;2023-05-10T02:22:54;9.09;;;5.78;;
60336;SDS011;46978;50.288;28.624;2023-05-10T02:23:53;9.07;;;5.63;;
60336;SDS011;46978;50.288;28.624;2023-05-10T02:24:57;9.34;;;5.84;;
60336;SDS011;46978;50.288;28.624;2023-05-10T02:26:00;12.47;;;6.08;;
60336;SDS011;46978;50.288;28.624;2023-05-10T02:27:03;21.34;;;7.09;;
60336;SDS011;46978;50.288;28.624;2023-05-10T02:28:06;20.06;;;6.84;;
60336;SDS011;46978;50.288;28.624;2023-05-10T02:29:09;16.15;;;5.81;;
60336;SDS011;46978;50.288;28.624;2023-05-10T02:30:13;10.76;;;6.01;;
60336;SDS011;46978;50.288;28.624;2023-05-10T02:31:15;11.55;;;6.15;;
60336;SDS011;46978;50.288;28.624;2023-05-10T02:32:18;9.49;;;5.92;;
60336;SDS011;46978;50.288;28.624;2023-05-10T02:33:20;10.81;;;6.00;;
60336;SDS011;46978;50.288;28.624;2023-05-10T02:34:24;10.86;;;5.95;;
60336;SDS011;46978;50.288;28.624;2023-05-10T02:35:28;10.20;;;6.06;;
60336;SDS011;46978;50.288;28.624;2023-05-10T02:36:31;10.98;;;6.36;;
60336;SDS011;46978;50.288;28.624;2023-05-10T02:37:33;13.49;;;6.44;;
60336;SDS011;46978;50.288;28.624;2023-05-10T02:38:36;8.69;;;5.65;;
60336;SDS011;46978;50.288;28.624;2023-05-10T02:39:38;9.98;;;5.82;;
60336;SDS011;46978;50.288;28.624;2023-05-10T02:40:41;10.44;;;6.10;;
60336;SDS011;46978;50.288;28.624;2023-05-10T02:41:44;11.21;;;6.00;;
60336;SDS011;46978;50.288;28.624;2023-05-10T02:42:47;10.86;;;6.00;;
60336;SDS011;46978;50.288;28.624;2023-05-10T02:43:53;10.39;;;5.52;;
60336;SDS011;46978;50.288;28.624;2023-05-10T02:44:59;9.34;;;5.74;;
60336;SDS011;46978;50.288;28.624;2023-05-10T02:46:02;11.38;;;5.50;;
60336;SDS011;46978;50.288;28.624;2023-05-10T02:47:04;9.45;;;5.83;;
60336;SDS011;46978;50.288;28.624;2023-05-10T02:48:05;9.04;;;5.51;;
60336;SDS011;46978;50.288;28.624;2023-05-10T02:49:07;9.36;;;5.70;;
60336;SDS011;46978;50.288;28.624;2023-05-10T02:50:09;10.93;;;5.50;;
60336;SDS011;46978;50.288;28.624;2023-05-10T02:51:11;9.41;;;5.70;;
60336;SDS011;46978;50.288;28.624;2023-05-10T02:52:16;11.17;;;5.24;;
60336;SDS011;46978;50.288;28.624;2023-05-10T02:53:26;10.21;;;5.48;;
60336;SDS011;46978;50.288;28.624;2023-05-10T02:54:30;9.89;;;5.87;;
60336;SDS011;46978;50.288;28.624;2023-05-10T02:55:37;10.21;;;5.21;;
60336;SDS011;46978;50.288;28.624;2023-05-10T02:56:42;9.98;;;5.33;;
60336;SDS011;46978;50.288;28.624;2023-05-10T02:57:56;7.99;;;5.04;;
60336;SDS011;46978;50.288;28.624;2023-05-10T02:59:02;9.82;;;5.60;;
60336;SDS011;46978;50.288;28.624;2023-05-10T03:00:04;11.40;;;5.87;;
60336;SDS011;46978;50.288;28.624;2023-05-10T03:01:07;11.57;;;6.10;;
60336;SDS011;46978;50.288;28.624;2023-05-10T03:02:09;11.88;;;6.66;;
60336;SDS011;46978;50.288;28.624;2023-05-10T03:03:12;13.02;;;7.24;;
60336;SDS011;46978;50.288;28.624;2023-05-10T03:04:14;10.66;;;6.26;;
60336;SDS011;46978;50.288;28.624;2023-05-10T03:05:16;18.99;;;6.34;;
60336;SDS011;46978;50.288;28.624;2023-05-10T03:06:17;15.58;;;6.85;;
60336;SDS011;46978;50.288;28.624;2023-05-10T03:07:19;14.76;;;6.86;;
60336;SDS011;46978;50.288;28.624;2023-05-10T03:08:21;11.61;;;5.92;;
60336;SDS011;46978;50.288;28.624;2023-05-10T03:09:24;13.90;;;6.45;;
60336;SDS011;46978;50.288;28.624;2023-05-10T03:10:27;11.37;;;5.84;;
60336;SDS011;46978;50.288;28.624;2023-05-10T03:13:12;12.83;;;6.28;;
60336;SDS011;46978;50.288;28.624;2023-05-10T03:16:32;13.17;;;7.14;;
60336;SDS011;46978;50.288;28.624;2023-05-10T03:17:00;14.06;;;5.48;;
60336;SDS011;46978;50.288;28.624;2023-05-10T03:18:22;9.86;;;5.68;;
60336;SDS011;46978;50.288;28.624;2023-05-10T03:20:46;9.06;;;5.79;;
60336;SDS011;46978;50.288;28.624;2023-05-10T03:21:51;8.26;;;4.83;;
60336;SDS011;46978;50.288;28.624;2023-05-10T03:24:06;12.22;;;6.07;;
60336;SDS011;46978;50.288;28.624;2023-05-10T03:25:10;9.64;;;5.12;;
60336;SDS011;46978;50.288;28.624;2023-05-10T03:26:21;9.26;;;5.36;;
60336;SDS011;46978;50.288;28.624;2023-05-10T03:27:18;7.37;;;4.71;;
60336;SDS011;46978;50.288;28.624;2023-05-10T03:28:21;7.89;;;5.16;;
60336;SDS011;46978;50.288;28.624;2023-05-10T03:29:25;7.62;;;4.45;;
60336;SDS011;46978;50.288;28.624;2023-05-10T03:30:28;8.17;;;4.67;;
60336;SDS011;46978;50.288;28.624;2023-05-10T03:31:31;9.14;;;4.77;;
60336;SDS011;46978;50.288;28.624;2023-05-10T03:32:33;9.36;;;4.55;;
60336;SDS011;46978;50.288;28.624;2023-05-10T03:33:35;7.53;;;4.77;;
60336;SDS011;46978;50.288;28.624;2023-05-10T03:34:40;8.67;;;4.86;;
60336;SDS011;46978;50.288;28.624;2023-05-10T03:35:43;10.26;;;5.82;;
60336;SDS011;46978;50.288;28.624;2023-05-10T03:36:45;8.86;;;5.39;;
60336;SDS011;46978;50.288;28.624;2023-05-10T03:37:46;9.44;;;5.36;;
60336;SDS011;46978;50.288;28.624;2023-05-10T03:38:48;9.31;;;4.54;;
60336;SDS011;46978;50.288;28.624;2023-05-10T03:39:49;8.22;;;4.95;;
60336;SDS011;46978;50.288;28.624;2023-05-10T03:40:51;8.68;;;5.35;;
60336;SDS011;46978;50.288;28.624;2023-05-10T03:41:53;8.44;;;5.22;;
60336;SDS011;46978;50.288;28.624;2023-05-10T03:42:54;7.74;;;5.19;;
60336;SDS011;46978;50.288;28.624;2023-05-10T03:43:56;8.39;;;5.26;;
60336;SDS011;46978;50.288;28.624;2023-05-10T03:44:58;10.54;;;5.61;;
60336;SDS011;46978;50.288;28.624;2023-05-10T03:46:01;7.87;;;5.64;;
60336;SDS011;46978;50.288;28.624;2023-05-10T03:47:03;9.78;;;5.25;;
60336;SDS011;46978;50.288;28.624;2023-05-10T03:48:05;8.43;;;5.29;;
60336;SDS011;46978;50.288;28.624;2023-05-10T03:49:07;10.24;;;5.28;;
60336;SDS011;46978;50.288;28.624;2023-05-10T03:50:09;18.37;;;5.83;;
60336;SDS011;46978;50.288;28.624;2023-05-10T03:51:10;14.32;;;5.69;;
60336;SDS011;46978;50.288;28.624;2023-05-10T03:52:12;8.47;;;5.23;;
60336;SDS011;46978;50.288;28.624;2023-05-10T03:53:13;8.22;;;4.98;;
60336;SDS011;46978;50.288;28.624;2023-05-10T03:54:15;7.54;;;5.11;;
60336;SDS011;46978;50.288;28.624;2023-05-10T03:55:17;9.86;;;4.96;;
60336;SDS011;46978;50.288;28.624;2023-05-10T03:56:19;9.05;;;5.63;;
60336;SDS011;46978;50.288;28.624;2023-05-10T03:57:20;10.19;;;5.56;;
60336;SDS011;46978;50.288;28.624;2023-05-10T03:58:22;10.67;;;5.17;;
60336;SDS011;46978;50.288;28.624;2023-05-10T03:59:23;9.50;;;4.99;;
60336;SDS011;46978;50.288;28.624;2023-05-10T04:00:25;8.56;;;4.71;;
60336;SDS011;46978;50.288;28.624;2023-05-10T04:01:27;9.74;;;4.82;;
60336;SDS011;46978;50.288;28.624;2023-05-10T04:02:28;9.83;;;4.91;;
60336;SDS011;46978;50.288;28.624;2023-05-10T04:03:30;9.44;;;5.03;;
60336;SDS011;46978;50.288;28.624;2023-05-10T04:04:31;9.70;;;4.64;;
60336;SDS011;46978;50.288;28.624;2023-05-10T04:05:33;7.99;;;4.81;;
60336;SDS011;46978;50.288;28.624;2023-05-10T04:06:35;8.40;;;4.74;;
60336;SDS011;46978;50.288;28.624;2023-05-10T04:07:36;8.41;;;4.62;;
60336;SDS011;46978;50.288;28.624;2023-05-10T04:08:38;7.82;;;4.59;;
60336;SDS011;46978;50.288;28.624;2023-05-10T04:09:39;8.11;;;4.54;;
60336;SDS011;46978;50.288;28.624;2023-05-10T04:10:41;8.25;;;4.65;;
60336;SDS011;46978;50.288;28.624;2023-05-10T04:11:43;7.77;;;4.58;;
60336;SDS011;46978;50.288;28.624;2023-05-10T04:12:45;13.11;;;5.11;;
60336;SDS011;46978;50.288;28.624;2023-05-10T04:13:46;8.58;;;5.13;;
60336;SDS011;46978;50.288;28.624;2023-05-10T04:14:48;11.36;;;5.05;;
60336;SDS011;46978;50.288;28.624;2023-05-10T04:15:49;8.05;;;4.52;;
60336;SDS011;46978;50.288;28.624;2023-05-10T04:16:51;10.51;;;4.56;;
60336;SDS011;46978;50.288;28.624;2023-05-10T04:17:52;8.24;;;5.05;;
60336;SDS011;46978;50.288;28.624;2023-05-10T04:18:54;10.33;;;5.08;;
60336;SDS011;46978;50.288;28.624;2023-05-10T04:19:55;10.50;;;6.12;;
60336;SDS011;46978;50.288;28.624;2023-05-10T04:20:57;8.92;;;5.75;;
60336;SDS011;46978;50.288;28.624;2023-05-10T04:21:59;8.49;;;6.10;;
60336;SDS011;46978;50.288;28.624;2023-05-10T04:23:00;7.71;;;5.35;;
60336;SDS011;46978;50.288;28.624;2023-05-10T04:24:02;8.65;;;5.18;;
60336;SDS011;46978;50.288;28.624;2023-05-10T04:25:05;9.42;;;5.67;;
60336;SDS011;46978;50.288;28.624;2023-05-10T04:26:07;9.34;;;5.47;;
60336;SDS011;46978;50.288;28.624;2023-05-10T04:27:09;8.39;;;5.92;;
60336;SDS011;46978;50.288;28.624;2023-05-10T04:28:10;9.26;;;5.87;;
60336;SDS011;46978;50.288;28.624;2023-05-10T04:29:12;14.54;;;6.67;;
60336;SDS011;46978;50.288;28.624;2023-05-10T04:30:14;9.32;;;5.05;;
60336;SDS011;46978;50.288;28.624;2023-05-10T04:31:16;7.65;;;5.07;;
60336;SDS011;46978;50.288;28.624;2023-05-10T04:32:17;7.79;;;5.24;;
60336;SDS011;46978;50.288;28.624;2023-05-10T04:33:19;9.69;;;4.95;;
60336;SDS011;46978;50.288;28.624;2023-05-10T04:34:20;10.98;;;5.31;;
60336;SDS011;46978;50.288;28.624;2023-05-10T04:35:22;9.53;;;4.85;;
60336;SDS011;46978;50.288;28.624;2023-05-10T04:36:24;9.51;;;5.12;;
60336;SDS011;46978;50.288;28.624;2023-05-10T04:37:25;8.85;;;4.99;;
60336;SDS011;46978;50.288;28.624;2023-05-10T04:38:27;10.30;;;5.20;;
60336;SDS011;46978;50.288;28.624;2023-05-10T04:39:29;12.46;;;5.35;;
60336;SDS011;46978;50.288;28.624;2023-05-10T04:40:30;8.59;;;5.25;;
60336;SDS011;46978;50.288;28.624;2023-05-10T04:41:32;9.84;;;4.90;;
60336;SDS011;46978;50.288;28.624;2023-05-10T04:42:34;7.53;;;4.24;;
60336;SDS011;46978;50.288;28.624;2023-05-10T04:43:36;9.24;;;4.74;;
60336;SDS011;46978;50.288;28.624;2023-05-10T04:44:38;9.21;;;4.23;;
60336;SDS011;46978;50.288;28.624;2023-05-10T04:45:39;6.36;;;3.41;;
60336;SDS011;46978;50.288;28.624;2023-05-10T04:46:41;6.04;;;3.43;;
60336;SDS011;46978;50.288;28.624;2023-05-10T04:47:45;7.21;;;3.55;;
60336;SDS011;46978;50.288;28.624;2023-05-10T04:48:47;8.44;;;3.54;;
60336;SDS011;46978;50.288;28.624;2023-05-10T04:49:52;9.36;;;3.57;;
60336;SDS011;46978;50.288;28.624;2023-05-10T04:50:53;6.88;;;3.68;;
60336;SDS011;46978;50.288;28.624;2023-05-10T04:51:55;6.76;;;3.70;;
60336;SDS011;46978;50.288;28.624;2023-05-10T04:52:57;4.67;;;3.24;;
60336;SDS011;46978;50.288;28.624;2023-05-10T04:53:58;7.81;;;3.61;;
60336;SDS011;46978;50.288;28.624;2023-05-10T04:55:00;7.26;;;3.66;;
60336;SDS011;46978;50.288;28.624;2023-05-10T04:56:02;7.31;;;3.46;;
60336;SDS011;46978;50.288;28.624;2023-05-10T04:57:03;8.70;;;3.59;;
60336;SDS011;46978;50.288;28.624;2023-05-10T04:58:05;7.14;;;3.56;;
60336;SDS011;46978;50.288;28.624;2023-05-10T04:59:06;5.93;;;3.64;;
60336;SDS011;46978;50.288;28.624;2023-05-10T05:00:09;7.11;;;3.37;;
60336;SDS011;46978;50.288;28.624;2023-05-10T05:01:11;7.38;;;3.79;;
60336;SDS011;46978;50.288;28.624;2023-05-10T05:02:12;6.91;;;3.69;;
60336;SDS011;46978;50.288;28.624;2023-05-10T05:03:14;7.64;;;3.74;;
60336;SDS011;46978;50.288;28.624;2023-05-10T05:04:15;5.87;;;3.49;;
60336;SDS011;46978;50.288;28.624;2023-05-10T05:05:17;7.76;;;3.97;;
60336;SDS011;46978;50.288;28.624;2023-05-10T05:06:18;6.77;;;3.80;;
60336;SDS011;46978;50.288;28.624;2023-05-10T05:07:20;11.34;;;3.81;;
60336;SDS011;46978;50.288;28.624;2023-05-10T05:08:22;6.22;;;3.40;;
60336;SDS011;46978;50.288;28.624;2023-05-10T05:09:23;6.97;;;3.56;;
60336;SDS011;46978;50.288;28.624;2023-05-10T05:10:25;6.02;;;3.30;;
60336;SDS011;46978;50.288;28.624;2023-05-10T05:11:26;8.89;;;3.84;;
60336;SDS011;46978;50.288;28.624;2023-05-10T05:12:28;6.09;;;3.53;;
60336;SDS011;46978;50.288;28.624;2023-05-10T05:13:30;6.48;;;3.69;;
60336;SDS011;46978;50.288;28.624;2023-05-10T05:14:32;6.02;;;3.63;;
60336;SDS011;46978;50.288;28.624;2023-05-10T05:15:33;5.81;;;3.59;;
60336;SDS011;46978;50.288;28.624;2023-05-10T05:16:35;5.58;;;3.19;;
60336;SDS011;46978;50.288;28.624;2023-05-10T05:17:36;6.09;;;3.42;;
60336;SDS011;46978;50.288;28.624;2023-05-10T05:18:38;7.44;;;3.79;;
60336;SDS011;46978;50.288;28.624;2023-05-10T05:19:40;5.98;;;3.14;;
60336;SDS011;46978;50.288;28.624;2023-05-10T05:20:41;6.16;;;3.38;;
60336;SDS011;46978;50.288;28.624;2023-05-10T05:21:43;5.87;;;3.42;;
60336;SDS011;46978;50.288;28.624;2023-05-10T05:22:44;5.86;;;3.33;;
60336;SDS011;46978;50.288;28.624;2023-05-10T05:23:46;5.46;;;3.20;;
60336;SDS011;46978;50.288;28.624;2023-05-10T05:24:48;8.54;;;3.68;;
60336;SDS011;46978;50.288;28.624;2023-05-10T05:25:49;5.15;;;3.45;;
60336;SDS011;46978;50.288;28.624;2023-05-10T05:26:52;5.63;;;3.24;;
60336;SDS011;46978;50.288;28.624;2023-05-10T05:27:54;5.86;;;3.22;;
60336;SDS011;46978;50.288;28.624;2023-05-10T05:28:55;6.00;;;3.59;;
60336;SDS011;46978;50.288;28.624;2023-05-10T05:29:57;6.36;;;3.13;;
60336;SDS011;46978;50.288;28.624;2023-05-10T05:30:59;4.85;;;2.98;;
60336;SDS011;46978;50.288;28.624;2023-05-10T05:32:00;6.04;;;2.98;;
60336;SDS011;46978;50.288;28.624;2023-05-10T05:33:02;5.25;;;3.01;;
60336;SDS011;46978;50.288;28.624;2023-05-10T05:34:04;7.61;;;3.06;;
60336;SDS011;46978;50.288;28.624;2023-05-10T05:35:06;4.78;;;2.94;;
60336;SDS011;46978;50.288;28.624;2023-05-10T05:36:08;5.35;;;3.20;;
60336;SDS011;46978;50.288;28.624;2023-05-10T05:37:18;4.29;;;2.79;;
60336;SDS011;46978;50.288;28.624;2023-05-10T05:38:17;5.54;;;3.06;;
60336;SDS011;46978;50.288;28.624;2023-05-10T05:39:18;6.21;;;3.31;;
60336;SDS011;46978;50.288;28.624;2023-05-10T05:40:20;5.37;;;2.73;;
60336;SDS011;46978;50.288;28.624;2023-05-10T05:41:22;6.32;;;2.69;;
60336;SDS011;46978;50.288;28.624;2023-05-10T05:42:23;4.94;;;2.59;;
60336;SDS011;46978;50.288;28.624;2023-05-10T05:43:25;7.13;;;2.83;;
60336;SDS011;46978;50.288;28.624;2023-05-10T05:44:26;4.79;;;2.62;;
60336;SDS011;46978;50.288;28.624;2023-05-10T05:45:28;5.20;;;2.82;;
60336;SDS011;46978;50.288;28.624;2023-05-10T05:46:29;7.67;;;3.43;;
60336;SDS011;46978;50.288;28.624;2023-05-10T05:47:31;6.57;;;3.80;;
60336;SDS011;46978;50.288;28.624;2023-05-10T05:48:32;8.78;;;4.64;;
60336;SDS011;46978;50.288;28.624;2023-05-10T05:49:34;8.46;;;4.62;;
60336;SDS011;46978;50.288;28.624;2023-05-10T05:50:36;13.79;;;5.82;;
60336;SDS011;46978;50.288;28.624;2023-05-10T05:51:37;40.13;;;22.06;;
60336;SDS011;46978;50.288;28.624;2023-05-10T05:52:39;41.20;;;23.10;;
60336;SDS011;46978;50.288;28.624;2023-05-10T05:53:40;37.09;;;19.92;;
60336;SDS011;46978;50.288;28.624;2023-05-10T05:54:42;22.83;;;12.77;;
60336;SDS011;46978;50.288;28.624;2023-05-10T05:56:57;68.43;;;33.42;;
60336;SDS011;46978;50.288;28.624;2023-05-10T05:57:59;33.18;;;18.90;;
60336;SDS011;46978;50.288;28.624;2023-05-10T05:59:01;18.10;;;9.91;;
60336;SDS011;46978;50.288;28.624;2023-05-10T06:00:03;11.64;;;6.08;;
60336;SDS011;46978;50.288;28.624;2023-05-10T06:01:05;33.83;;;18.07;;
60336;SDS011;46978;50.288;28.624;2023-05-10T06:02:07;13.78;;;6.61;;
60336;SDS011;46978;50.288;28.624;2023-05-10T06:03:09;58.35;;;26.31;;
60336;SDS011;46978;50.288;28.624;2023-05-10T06:04:11;17.58;;;10.27;;
60336;SDS011;46978;50.288;28.624;2023-05-10T06:05:12;7.42;;;4.21;;
60336;SDS011;46978;50.288;28.624;2023-05-10T06:06:14;11.70;;;7.13;;
60336;SDS011;46978;50.288;28.624;2023-05-10T06:07:16;11.98;;;7.44;;
60336;SDS011;46978;50.288;28.624;2023-05-10T06:08:17;20.66;;;10.75;;
60336;SDS011;46978;50.288;28.624;2023-05-10T06:09:19;94.31;;;42.23;;
60336;SDS011;46978;50.288;28.624;2023-05-10T06:10:20;41.00;;;20.61;;
60336;SDS011;46978;50.288;28.624;2023-05-10T06:11:23;10.31;;;5.38;;
60336;SDS011;46978;50.288;28.624;2023-05-10T06:12:25;17.99;;;10.83;;
60336;SDS011;46978;50.288;28.624;2023-05-10T06:13:26;6.97;;;3.60;;
60336;SDS011;46978;50.288;28.624;2023-05-10T06:14:28;6.19;;;3.45;;
60336;SDS011;46978;50.288;28.624;2023-05-10T06:15:29;6.21;;;2.52;;
60336;SDS011;46978;50.288;28.624;2023-05-10T06:16:31;5.89;;;2.69;;
60336;SDS011;46978;50.288;28.624;2023-05-10T06:17:33;6.44;;;3.40;;
60336;SDS011;46978;50.288;28.624;2023-05-10T06:18:34;5.12;;;2.76;;
60336;SDS011;46978;50.288;28.624;2023-05-10T06:19:36;7.29;;;2.81;;
60336;SDS011;46978;50.288;28.624;2023-05-10T06:20:37;6.20;;;3.04;;
60336;SDS011;46978;50.288;28.624;2023-05-10T06:21:39;6.46;;;2.29;;
60336;SDS011;46978;50.288;28.624;2023-05-10T06:22:40;4.83;;;2.31;;
60336;SDS011;46978;50.288;28.624;2023-05-10T06:23:42;4.01;;;2.05;;
60336;SDS011;46978;50.288;28.624;2023-05-10T06:24:44;3.20;;;1.85;;
60336;SDS011;46978;50.288;28.624;2023-05-10T06:25:45;6.11;;;2.34;;
60336;SDS011;46978;50.288;28.624;2023-05-10T06:26:47;25.03;;;11.15;;
60336;SDS011;46978;50.288;28.624;2023-05-10T06:27:49;10.53;;;4.03;;